Time;durP1;ratioP1;P1;durP2;ratioP2;P2;SDS_P1;SDS_P2;PMS_P1;PMS_P2;Temp;Humidity;BMP_temperature;BMP_pressure;BME280_temperature;BME280_humidity;BME280_pressure;Samples;Min_cycle;Max_cycle;Signal;HPM_P1;HPM_P2
2022/08/25 04:02:01;;;;;;;9.67;8.13;;;19.60;99.90;;;;;;5280013;23;20536;-73
2022/08/25 04:04:28;;;;;;;10.17;8.03;;;19.60;99.90;;;;;;4990445;28;20936;-73
2022/08/25 04:06:55;;;;;;;9.83;8.20;;;19.60;99.90;;;;;;4990421;28;20502;-73
2022/08/25 04:09:22;;;;;;;12.70;7.27;;;19.60;99.90;;;;;;4990332;28;20459;-73
2022/08/25 04:11:49;;;;;;;11.10;8.20;;;19.60;99.90;;;;;;4990008;28;20479;-73
2022/08/25 04:14:16;;;;;;;11.63;8.37;;;19.60;99.90;;;;;;4990189;28;20462;-73
2022/08/25 04:16:43;;;;;;;10.23;8.03;;;19.60;99.90;;;;;;4990149;28;20456;-73
2022/08/25 04:19:11;;;;;;;9.90;8.43;;;19.60;99.90;;;;;;4989922;28;20461;-73
2022/08/25 04:21:40;;;;;;;12.53;9.93;;;19.60;99.90;;;;;;4990082;28;20840;-73
2022/08/25 04:24:08;;;;;;;11.77;8.57;;;19.50;99.90;;;;;;4989946;28;20537;-73
2022/08/25 04:26:37;;;;;;;13.40;8.80;;;19.50;99.90;;;;;;4990838;28;20465;-73
2022/08/25 04:29:06;;;;;;;13.00;10.17;;;19.40;99.90;;;;;;4990146;28;20464;-73
2022/08/25 04:31:33;;;;;;;11.93;9.13;;;19.40;99.90;;;;;;4990187;28;20475;-73
2022/08/25 04:34:02;;;;;;;12.40;9.60;;;19.30;99.90;;;;;;4990108;28;20459;-73
2022/08/25 04:36:30;;;;;;;13.50;9.60;;;19.30;99.90;;;;;;4990118;28;21316;-73
2022/08/25 04:38:57;;;;;;;11.37;9.60;;;19.30;99.90;;;;;;4990443;28;20487;-73
2022/08/25 04:41:24;;;;;;;11.23;9.30;;;19.30;99.90;;;;;;4990298;28;20498;-73
2022/08/25 04:43:53;;;;;;;15.13;9.47;;;19.30;99.90;;;;;;4990402;28;20466;-73
2022/08/25 04:46:21;;;;;;;11.57;8.33;;;19.30;99.90;;;;;;4993606;28;20462;-73
2022/08/25 04:48:50;;;;;;;12.17;8.70;;;19.30;99.90;;;;;;4994730;28;20455;-73
2022/08/25 04:51:19;;;;;;;12.63;9.40;;;19.30;99.90;;;;;;4994611;28;20482;-73
2022/08/25 04:53:47;;;;;;;13.33;9.37;;;19.20;99.90;;;;;;4995068;28;20582;-73
2022/08/25 04:56:16;;;;;;;10.87;8.53;;;19.20;99.90;;;;;;4994779;28;20481;-73
2022/08/25 04:58:45;;;;;;;13.23;10.00;;;19.20;99.90;;;;;;4994446;28;21077;-73
2022/08/25 05:01:15;;;;;;;10.13;8.00;;;19.20;99.90;;;;;;4992110;28;20502;-73
2022/08/25 05:03:43;;;;;;;15.40;9.30;;;19.30;99.90;;;;;;4990094;28;20982;-73
2022/08/25 05:06:10;;;;;;;12.83;9.63;;;19.20;99.90;;;;;;4988950;28;20983;-73
2022/08/25 05:08:37;;;;;;;11.70;9.33;;;19.20;99.90;;;;;;4989294;28;20474;-73
2022/08/25 05:11:06;;;;;;;11.07;9.47;;;19.20;99.90;;;;;;4990283;28;20479;-73
2022/08/25 05:13:34;;;;;;;13.20;9.13;;;19.10;99.90;;;;;;4990995;28;20497;-73
2022/08/25 05:16:02;;;;;;;13.37;9.40;;;19.10;99.90;;;;;;4989892;28;20975;-73
2022/08/25 05:18:31;;;;;;;10.60;8.80;;;19.10;99.90;;;;;;4990258;28;20498;-74
2022/08/25 05:21:02;;;;;;;13.20;8.43;;;19.10;99.90;;;;;;4990363;28;20521;-73
2022/08/25 05:23:29;;;;;;;11.47;8.73;;;19.00;99.90;;;;;;4990540;28;20463;-73
2022/08/25 05:26:03;;;;;;;13.30;10.17;;;19.10;99.90;;;;;;4990670;28;20464;-73
2022/08/25 05:28:32;;;;;;;11.10;8.90;;;19.00;99.90;;;;;;4990774;28;20933;-73
2022/08/25 05:31:01;;;;;;;12.10;9.40;;;19.00;99.90;;;;;;4989783;28;21018;-74
2022/08/25 05:33:28;;;;;;;13.00;9.27;;;19.00;99.90;;;;;;4989782;28;20958;-73
2022/08/25 05:35:55;;;;;;;11.70;9.30;;;19.00;99.90;;;;;;4989255;28;20472;-73
2022/08/25 05:38:22;;;;;;;10.30;9.20;;;19.00;99.90;;;;;;4990018;28;20495;-73
2022/08/25 05:40:52;;;;;;;11.50;9.10;;;19.00;99.90;;;;;;4989813;28;20478;-73
2022/08/25 05:43:19;;;;;;;12.00;9.93;;;19.10;99.90;;;;;;4989605;28;20448;-73
2022/08/25 05:45:47;;;;;;;13.90;9.53;;;19.10;99.90;;;;;;4989349;28;20469;-74
2022/08/25 05:48:14;;;;;;;12.03;9.77;;;19.10;99.90;;;;;;4990020;28;20455;-73
2022/08/25 05:50:41;;;;;;;14.30;10.17;;;19.20;99.90;;;;;;4989992;28;20820;-73
2022/08/25 05:53:08;;;;;;;12.10;9.83;;;19.20;99.90;;;;;;4987540;28;20529;-73
2022/08/25 05:55:35;;;;;;;12.47;9.20;;;19.20;99.90;;;;;;4986911;28;20959;-74
2022/08/25 05:58:02;;;;;;;13.17;9.13;;;19.30;99.90;;;;;;4989481;28;20900;-73
2022/08/25 06:00:29;;;;;;;11.03;9.17;;;19.30;99.90;;;;;;4989585;28;20497;-73
2022/08/25 06:02:56;;;;;;;12.83;9.10;;;19.30;99.90;;;;;;4989055;28;20514;-71
2022/08/25 06:05:23;;;;;;;15.80;10.10;;;19.40;99.90;;;;;;4987730;28;20466;-71
2022/08/25 06:07:52;;;;;;;13.30;8.93;;;19.40;99.90;;;;;;4988984;28;20455;-71
2022/08/25 06:10:19;;;;;;;12.70;9.23;;;19.40;99.90;;;;;;4988419;28;20546;-71
2022/08/25 06:12:46;;;;;;;11.67;9.70;;;19.40;99.90;;;;;;4988621;28;20459;-71
2022/08/25 06:15:16;;;;;;;14.17;9.50;;;19.50;99.90;;;;;;4987856;28;20467;-72
2022/08/25 06:17:43;;;;;;;13.87;10.70;;;19.50;99.90;;;;;;4988248;28;20490;-72
2022/08/25 06:20:15;;;;;;;13.87;9.87;;;19.50;99.90;;;;;;4988836;28;20550;-72
2022/08/25 06:22:42;;;;;;;11.10;9.30;;;19.50;99.90;;;;;;4988210;28;20440;-72
2022/08/25 06:25:11;;;;;;;13.23;9.27;;;19.60;99.90;;;;;;4988763;28;20477;-73
2022/08/25 06:27:38;;;;;;;9.00;8.10;;;19.60;99.90;;;;;;4989899;28;20968;-73
2022/08/25 06:30:07;;;;;;;13.70;9.70;;;19.70;99.90;;;;;;4990058;28;20471;-73
2022/08/25 06:32:36;;;;;;;11.87;10.03;;;19.70;99.90;;;;;;4989855;28;20491;-73
2022/08/25 06:35:03;;;;;;;13.80;10.73;;;19.70;99.90;;;;;;4989224;28;20464;-73
2022/08/25 06:37:32;;;;;;;10.90;9.70;;;19.80;99.90;;;;;;4989861;28;20499;-73
2022/08/25 06:39:59;;;;;;;12.70;9.73;;;19.80;99.90;;;;;;4990872;28;20467;-73
2022/08/25 06:42:26;;;;;;;12.63;9.30;;;19.80;99.90;;;;;;4990216;28;20480;-73
2022/08/25 06:44:53;;;;;;;12.20;10.10;;;19.80;99.90;;;;;;4989616;28;20462;-73
2022/08/25 06:47:20;;;;;;;9.63;8.30;;;19.90;99.90;;;;;;4989874;28;20459;-73
2022/08/25 06:49:48;;;;;;;10.13;9.03;;;19.90;99.90;;;;;;4990884;28;20470;-73
2022/08/25 06:52:15;;;;;;;10.77;8.30;;;19.90;99.90;;;;;;4989892;28;20562;-73
2022/08/25 06:54:43;;;;;;;11.30;9.03;;;20.00;99.90;;;;;;4989988;28;20459;-73
2022/08/25 06:57:10;;;;;;;13.40;9.10;;;20.00;99.90;;;;;;4989810;28;20467;-73
2022/08/25 06:59:38;;;;;;;12.50;9.07;;;20.10;99.90;;;;;;4990208;28;20505;-73
2022/08/25 07:02:06;;;;;;;10.80;9.70;;;20.10;99.90;;;;;;4990295;28;20851;-73
2022/08/25 07:04:34;;;;;;;12.40;9.70;;;20.20;99.90;;;;;;4990337;28;20472;-73
2022/08/25 07:07:01;;;;;;;10.73;8.60;;;20.20;99.90;;;;;;4989665;28;20484;-73
2022/08/25 07:09:28;;;;;;;10.40;8.70;;;20.30;99.90;;;;;;4989496;28;21188;-73
2022/08/25 07:11:56;;;;;;;9.93;7.67;;;20.40;99.90;;;;;;4990811;28;20515;-73
2022/08/25 07:14:23;;;;;;;11.40;8.67;;;20.40;99.90;;;;;;4990131;28;20459;-73
2022/08/25 07:16:50;;;;;;;10.33;8.50;;;20.40;99.90;;;;;;4990112;28;20459;-73
2022/08/25 07:19:19;;;;;;;8.67;7.87;;;20.50;99.90;;;;;;4988822;28;20539;-73
2022/08/25 07:21:48;;;;;;;10.73;9.03;;;20.60;99.90;;;;;;4988482;28;20484;-73
2022/08/25 07:24:15;;;;;;;11.47;8.40;;;20.60;99.90;;;;;;4988325;28;21387;-73
2022/08/25 07:26:45;;;;;;;9.30;8.30;;;20.70;99.90;;;;;;4989268;28;20459;-73
2022/08/25 07:29:17;;;;;;;9.37;7.93;;;20.80;99.90;;;;;;4988454;28;21009;-73
2022/08/25 07:31:46;;;;;;;8.30;7.40;;;20.90;99.90;;;;;;4987813;28;20487;-73
2022/08/25 07:36:58;;;;;;;9.07;7.73;;;21.10;99.90;;;;;;4987276;28;20419;-72
2022/08/25 07:39:26;;;;;;;9.80;8.07;;;21.10;99.90;;;;;;4986612;28;21077;-72
2022/08/25 07:41:53;;;;;;;10.53;7.93;;;21.30;99.90;;;;;;4986795;28;20486;-72
2022/08/25 07:44:22;;;;;;;11.47;8.70;;;21.50;99.90;;;;;;4986040;28;20467;-68
2022/08/25 07:46:50;;;;;;;14.20;8.23;;;21.60;99.90;;;;;;4987150;28;20545;-71
2022/08/25 07:49:17;;;;;;;11.07;7.10;;;21.60;99.90;;;;;;4987048;28;20459;-72
2022/08/25 07:51:45;;;;;;;11.27;7.47;;;21.70;99.90;;;;;;4986845;28;20483;-72
2022/08/25 07:54:11;;;;;;;9.47;6.50;;;21.70;99.90;;;;;;4986210;28;20467;-72
2022/08/25 07:56:40;;;;;;;11.43;7.43;;;21.80;99.90;;;;;;4986632;28;20464;-72
2022/08/25 07:59:08;;;;;;;9.37;6.83;;;21.90;99.90;;;;;;4986931;28;20523;-72
2022/08/25 08:01:37;;;;;;;8.43;7.53;;;22.00;99.90;;;;;;4986592;28;20495;-72
2022/08/25 08:04:04;;;;;;;13.23;6.60;;;22.10;99.90;;;;;;4986296;28;20833;-72
2022/08/25 08:06:31;;;;;;;6.93;6.23;;;22.20;99.90;;;;;;4986596;28;20483;-72
2022/08/25 08:08:58;;;;;;;10.60;7.10;;;22.30;99.90;;;;;;4985739;28;20455;-72
2022/08/25 08:11:27;;;;;;;9.37;6.87;;;22.40;99.90;;;;;;4986590;28;20484;-72
2022/08/25 08:13:56;;;;;;;9.60;6.23;;;22.50;99.90;;;;;;4986690;28;20464;-72
2022/08/25 08:16:25;;;;;;;10.07;6.23;;;22.70;99.90;;;;;;4986122;28;20459;-72
2022/08/25 08:18:54;;;;;;;8.87;6.00;;;22.80;99.90;;;;;;4986556;28;20495;-71
2022/08/25 08:21:24;;;;;;;8.50;5.77;;;22.90;99.90;;;;;;4986554;28;20485;-72
2022/08/25 08:23:53;;;;;;;8.17;5.80;;;23.10;99.90;;;;;;4986062;28;20467;-73
2022/08/25 08:26:20;;;;;;;6.53;5.80;;;23.20;99.90;;;;;;4985688;28;20459;-72
2022/08/25 08:28:47;;;;;;;7.10;5.83;;;23.20;99.90;;;;;;4986112;28;21023;-72
2022/08/25 08:31:18;;;;;;;7.77;5.50;;;23.40;99.90;;;;;;4986528;28;20490;-72
2022/08/25 08:33:45;;;;;;;7.47;5.97;;;23.50;99.90;;;;;;4985939;28;20473;-73
2022/08/25 08:36:13;;;;;;;8.67;6.13;;;23.70;99.90;;;;;;4985545;28;20470;-73
2022/08/25 08:38:42;;;;;;;6.80;5.47;;;23.90;99.90;;;;;;4986446;28;20499;-72
2022/08/25 08:44:23;;;;;;;7.47;5.97;;;24.20;99.90;;;;;;4985317;28;20529;-73
2022/08/25 08:47:00;;;;;;;6.50;5.20;;;24.30;99.90;;;;;;4986233;28;20876;-73
2022/08/25 08:49:34;;;;;;;9.90;6.10;;;24.40;99.90;;;;;;4986069;28;20432;-72
2022/08/25 08:52:04;;;;;;;6.97;5.30;;;24.40;99.90;;;;;;4985428;28;20482;-73
2022/08/25 08:54:35;;;;;;;8.30;5.50;;;24.60;99.90;;;;;;4985609;28;21015;-72
2022/08/25 08:57:09;;;;;;;6.30;5.70;;;24.70;99.90;;;;;;4986150;28;20436;-72
2022/08/25 08:59:45;;;;;;;6.00;5.37;;;24.80;99.90;;;;;;4986445;28;20530;-72
2022/08/25 09:02:18;;;;;;;27.20;7.50;;;24.90;99.90;;;;;;4986110;28;20495;-71
2022/08/25 09:04:49;;;;;;;8.77;5.53;;;25.00;99.90;;;;;;4985399;28;21297;-71
2022/08/25 09:07:21;;;;;;;6.07;5.00;;;25.10;99.90;;;;;;4986258;28;20440;-71
2022/08/25 09:09:49;;;;;;;7.40;5.43;;;25.20;99.90;;;;;;4985799;28;21251;-71
2022/08/25 09:12:25;;;;;;;9.10;5.53;;;25.20;99.90;;;;;;4985897;28;20506;-71
2022/08/25 09:15:03;;;;;;;11.63;6.40;;;25.30;99.90;;;;;;4985527;28;20490;-71
2022/08/25 09:17:55;;;;;;;7.73;5.50;;;25.40;99.90;;;;;;4986811;28;20452;-71
2022/08/25 09:20:48;;;;;;;7.90;5.80;;;25.50;99.90;;;;;;4983577;28;20532;-73
2022/08/25 09:23:27;;;;;;;7.10;5.03;;;25.60;99.90;;;;;;4986219;28;20944;-71
2022/08/25 09:26:00;;;;;;;6.90;5.43;;;25.70;99.90;;;;;;4985373;28;20463;-70
2022/08/25 09:28:32;;;;;;;6.90;5.20;;;25.70;99.90;;;;;;4985466;28;20467;-70
2022/08/25 09:31:01;;;;;;;8.40;4.70;;;25.80;99.90;;;;;;4986823;28;20483;-70
2022/08/25 09:33:31;;;;;;;6.43;5.37;;;25.90;99.90;;;;;;4989309;28;20465;-70
2022/08/25 09:35:58;;;;;;;9.53;5.60;;;26.00;99.90;;;;;;4988695;28;20467;-70
2022/08/25 09:38:31;;;;;;;7.83;5.43;;;26.10;99.90;;;;;;4989463;28;20463;-70
2022/08/25 09:41:01;;;;;;;26.13;6.70;;;26.20;99.90;;;;;;4988817;28;20483;-70
2022/08/25 09:43:33;;;;;;;6.00;5.40;;;26.30;99.90;;;;;;4989339;28;20507;-70
2022/08/25 09:46:03;;;;;;;7.30;4.90;;;26.40;99.90;;;;;;4988430;28;20470;-70
2022/08/25 09:48:36;;;;;;;6.87;4.20;;;26.50;99.90;;;;;;4989434;28;20467;-70
2022/08/25 09:51:16;;;;;;;5.30;4.73;;;26.50;99.90;;;;;;4988969;28;20483;-71
2022/08/25 09:53:51;;;;;;;6.73;5.27;;;26.60;99.90;;;;;;4989135;28;20530;-71
2022/08/25 09:56:20;;;;;;;8.20;5.90;;;26.60;99.90;;;;;;4988637;28;20466;-70
2022/08/25 09:58:47;;;;;;;7.33;5.00;;;26.70;99.90;;;;;;4990078;28;20499;-74
2022/08/25 10:01:17;;;;;;;7.60;4.60;;;26.80;99.90;;;;;;4989864;28;20487;-75
2022/08/25 10:03:59;;;;;;;6.93;4.60;;;26.80;99.90;;;;;;4989187;28;20466;-71
2022/08/25 10:06:29;;;;;;;7.43;4.60;;;26.90;99.90;;;;;;4988929;28;20448;-72
2022/08/25 10:09:01;;;;;;;5.60;5.03;;;27.00;99.90;;;;;;4988670;28;20476;-72
2022/08/25 10:11:36;;;;;;;11.13;5.80;;;27.10;99.90;;;;;;4988617;28;20487;-71
2022/08/25 10:14:12;;;;;;;8.10;4.87;;;27.20;99.90;;;;;;4988167;28;20450;-74
2022/08/25 10:16:39;;;;;;;7.30;4.73;;;27.30;99.90;;;;;;4988765;28;20467;-77
2022/08/25 10:19:09;;;;;;;5.47;4.30;;;27.40;99.90;;;;;;4988959;28;20498;-73
2022/08/25 10:21:38;;;;;;;4.63;4.23;;;27.50;99.90;;;;;;4988687;28;20480;-76
2022/08/25 10:24:09;;;;;;;6.00;4.63;;;27.60;99.90;;;;;;4987963;28;20463;-76
2022/08/25 10:26:50;;;;;;;5.33;4.40;;;27.50;99.90;;;;;;4988437;28;20450;-75
2022/08/25 10:29:41;;;;;;;4.80;4.30;;;27.60;99.90;;;;;;4988520;28;20436;-75
2022/08/25 10:32:15;;;;;;;7.83;4.20;;;27.70;99.90;;;;;;4988663;28;20483;-75
2022/08/25 10:34:48;;;;;;;5.33;4.50;;;27.80;99.90;;;;;;4987114;28;20470;-76
2022/08/25 10:37:23;;;;;;;5.43;4.77;;;28.00;99.90;;;;;;4988184;28;20452;-75
2022/08/25 10:40:03;;;;;;;6.60;4.73;;;28.10;99.90;;;;;;4988280;28;20525;-75
2022/08/25 10:42:36;;;;;;;6.73;4.50;;;28.20;99.90;;;;;;4986874;28;20511;-76
2022/08/25 10:48:35;;;;;;;5.67;4.97;;;28.30;99.90;;;;;;4988117;28;20432;-72
2022/08/25 10:51:11;;;;;;;5.10;4.60;;;28.40;99.90;;;;;;4988003;28;20858;-72
2022/08/25 10:53:48;;;;;;;5.90;4.47;;;28.40;99.90;;;;;;4987973;28;20526;-72
2022/08/25 10:56:19;;;;;;;5.17;4.73;;;28.50;99.90;;;;;;4986266;28;20449;-75
2022/08/25 10:59:22;;;;;;;6.33;5.60;;;28.50;99.90;;;;;;4986669;28;20440;-74
2022/08/25 11:02:01;;;;;;;6.27;4.50;;;28.60;99.90;;;;;;4926093;29;20501;-75
2022/08/25 11:04:35;;;;;;;6.70;4.40;;;28.70;99.90;;;;;;4979174;28;20469;-75
2022/08/25 11:07:08;;;;;;;5.67;4.67;;;28.80;99.90;;;;;;4986440;28;20466;-75
2022/08/25 11:09:38;;;;;;;7.10;4.93;;;29.00;99.90;;;;;;4986768;28;20463;-76
2022/08/25 11:12:11;;;;;;;5.27;4.77;;;29.00;99.90;;;;;;4986658;28;21008;-75
2022/08/25 11:14:43;;;;;;;5.70;4.50;;;29.00;99.90;;;;;;4986098;28;20443;-76
2022/08/25 11:17:15;;;;;;;5.63;4.30;;;29.10;99.90;;;;;;4986300;28;20487;-75
2022/08/25 11:19:45;;;;;;;6.83;4.47;;;29.30;99.90;;;;;;4983882;28;20483;-75
2022/08/25 11:22:17;;;;;;;5.53;4.53;;;29.40;99.90;;;;;;4985917;28;20571;-75
2022/08/25 11:25:02;;;;;;;5.50;5.00;;;29.50;99.90;;;;;;4985273;28;20533;-74
2022/08/25 11:27:37;;;;;;;5.30;4.37;;;29.40;99.90;;;;;;4986730;28;20525;-73
2022/08/25 11:30:08;;;;;;;9.07;4.60;;;29.50;99.90;;;;;;4986110;28;20435;-73
2022/08/25 11:32:36;;;;;;;6.67;4.30;;;29.60;99.90;;;;;;4987116;28;20479;-74
2022/08/25 11:35:06;;;;;;;6.13;4.47;;;29.70;99.90;;;;;;4986056;28;20451;-74
2022/08/25 11:37:34;;;;;;;5.10;4.00;;;29.70;99.90;;;;;;4986622;28;20448;-74
2022/08/25 11:40:17;;;;;;;5.50;4.57;;;29.80;99.90;;;;;;4986791;28;20495;-74
2022/08/25 11:43:00;;;;;;;4.63;4.13;;;29.90;99.90;;;;;;4987082;28;20467;-74
2022/08/25 11:46:03;;;;;;;5.80;3.73;;;30.00;99.90;;;;;;4986149;28;20463;-73
2022/08/25 11:48:38;;;;;;;5.13;3.63;;;30.10;99.90;;;;;;4983699;28;20850;-73
2022/08/25 11:51:07;;;;;;;5.37;4.53;;;30.10;99.90;;;;;;4986904;28;20489;-74
2022/08/25 11:53:36;;;;;;;4.33;3.93;;;30.20;99.90;;;;;;4986196;28;20988;-74
2022/08/25 11:56:06;;;;;;;4.60;3.50;;;30.20;99.90;;;;;;4985848;28;20467;-75
2022/08/25 11:58:43;;;;;;;9.67;3.90;;;30.20;99.90;;;;;;4986259;28;20960;-74
2022/08/25 12:01:38;;;;;;;6.20;4.80;;;30.20;99.90;;;;;;4986555;28;20503;-75
2022/08/25 12:04:16;;;;;;;4.50;4.10;;;30.20;99.90;;;;;;4985859;28;20471;-74
2022/08/25 12:07:20;;;;;;;6.50;4.03;;;30.30;99.90;;;;;;4986468;28;20463;-75
2022/08/25 12:10:24;;;;;;;4.97;4.03;;;30.40;99.90;;;;;;4986506;28;20455;-74
2022/08/25 12:13:05;;;;;;;5.70;4.20;;;30.40;99.90;;;;;;4986732;28;20443;-74
2022/08/25 12:15:57;;;;;;;8.53;4.50;;;30.50;99.90;;;;;;4985938;28;20483;-76
2022/08/25 12:18:46;;;;;;;6.70;3.80;;;30.60;99.90;;;;;;4986432;28;20447;-75
2022/08/25 12:21:27;;;;;;;3.93;3.20;;;30.70;99.90;;;;;;4986396;28;20501;-75
2022/08/25 12:24:13;;;;;;;6.07;3.90;;;30.80;99.90;;;;;;4986579;28;20439;-75
2022/08/25 12:26:48;;;;;;;4.07;3.67;;;30.80;99.90;;;;;;4986580;28;20526;-74
2022/08/25 12:29:21;;;;;;;4.10;3.70;;;30.80;99.90;;;;;;4986218;28;20489;-74
2022/08/25 12:32:05;;;;;;;6.47;4.33;;;30.80;99.90;;;;;;4985983;28;20485;-74
2022/08/25 12:34:46;;;;;;;4.17;3.77;;;30.70;99.90;;;;;;4984211;28;21050;-74
2022/08/25 12:37:17;;;;;;;7.50;4.47;;;30.70;99.90;;;;;;4986144;28;20459;-74
2022/08/25 12:39:54;;;;;;;7.87;4.40;;;30.60;99.90;;;;;;4986028;28;20491;-74
2022/08/25 12:42:28;;;;;;;4.80;4.07;;;30.70;99.90;;;;;;4985795;28;20468;-74
2022/08/25 12:45:33;;;;;;;4.20;3.80;;;30.60;99.90;;;;;;4986173;28;20831;-74
2022/08/25 12:48:34;;;;;;;5.60;4.30;;;30.40;99.90;;;;;;4985739;28;20452;-74
2022/08/25 12:51:03;;;;;;;4.10;3.70;;;30.30;99.90;;;;;;4985793;28;20486;-74
2022/08/25 12:53:35;;;;;;;4.70;3.90;;;30.40;99.90;;;;;;4986228;28;20456;-74
2022/08/25 12:56:06;;;;;;;4.53;4.10;;;30.50;99.90;;;;;;4985314;28;20904;-74
2022/08/25 12:58:38;;;;;;;4.17;3.60;;;30.70;99.90;;;;;;4986288;28;20463;-76
2022/08/25 13:01:18;;;;;;;5.63;3.70;;;30.60;99.90;;;;;;4985450;28;20574;-75
2022/08/25 13:04:11;;;;;;;4.73;3.73;;;30.70;99.90;;;;;;4986206;28;20447;-76
2022/08/25 13:06:50;;;;;;;4.50;4.10;;;30.60;99.90;;;;;;4987556;28;20462;-75
2022/08/25 13:09:38;;;;;;;5.27;4.33;;;30.60;99.90;;;;;;4988117;28;20466;-75
2022/08/25 13:12:19;;;;;;;8.67;3.80;;;30.60;99.90;;;;;;4988245;28;21421;-76
2022/08/25 13:14:52;;;;;;;4.03;3.23;;;30.60;99.90;;;;;;4987750;28;20443;-75
2022/08/25 13:17:26;;;;;;;4.20;3.80;;;30.60;99.90;;;;;;4988843;28;20475;-76
2022/08/25 13:20:10;;;;;;;3.90;3.40;;;30.60;99.90;;;;;;4989248;28;21009;-75
2022/08/25 13:22:37;;;;;;;7.07;3.87;;;30.70;99.90;;;;;;4989844;28;20453;-75
2022/08/25 13:25:06;;;;;;;5.13;4.60;;;30.70;99.90;;;;;;4987548;28;20478;-76
2022/08/25 13:27:35;;;;;;;5.00;4.10;;;30.80;99.90;;;;;;4988652;28;20462;-76
2022/08/25 13:30:02;;;;;;;5.10;3.87;;;30.90;99.90;;;;;;4989365;28;20463;-76
2022/08/25 13:32:31;;;;;;;5.73;3.57;;;31.00;99.90;;;;;;4989041;28;20514;-75
2022/08/25 13:35:11;;;;;;;4.03;3.57;;;31.20;99.90;;;;;;4988827;28;21038;-75
2022/08/25 13:37:37;;;;;;;4.27;3.87;;;31.40;99.90;;;;;;4988004;28;20444;-76
2022/08/25 13:40:11;;;;;;;4.73;4.03;;;31.50;99.90;;;;;;4989545;28;20486;-75
2022/08/25 13:42:40;;;;;;;4.20;3.80;;;31.50;99.90;;;;;;4989339;28;20444;-75
2022/08/25 13:45:08;;;;;;;4.20;3.80;;;31.60;99.90;;;;;;4988772;28;20460;-76
2022/08/25 13:47:38;;;;;;;3.87;3.50;;;31.80;99.90;;;;;;4989464;28;20460;-76
2022/08/25 13:50:21;;;;;;;4.50;4.10;;;31.80;99.90;;;;;;4989274;28;20451;-73
2022/08/25 13:52:51;;;;;;;5.10;3.60;;;31.80;99.90;;;;;;4988760;28;20490;-72
2022/08/25 13:55:24;;;;;;;6.33;3.80;;;31.80;99.90;;;;;;4988227;28;20454;-73
2022/08/25 13:57:52;;;;;;;4.17;3.57;;;31.80;99.90;;;;;;4989366;28;20451;-73
2022/08/25 14:00:30;;;;;;;6.57;3.80;;;32.00;99.90;;;;;;4988509;28;20498;-75
2022/08/25 14:02:58;;;;;;;4.10;3.80;;;31.90;99.90;;;;;;4988731;28;20443;-76
2022/08/25 14:05:38;;;;;;;9.93;6.50;;;31.90;99.90;;;;;;4988032;28;20468;-75
2022/08/25 14:08:07;;;;;;;4.57;3.40;;;31.90;99.90;;;;;;4988883;28;20454;-76
2022/08/25 14:10:39;;;;;;;3.90;3.03;;;31.90;99.90;;;;;;4988045;28;21344;-75
2022/08/25 14:13:12;;;;;;;4.80;4.07;;;31.90;99.90;;;;;;4988830;28;20448;-75
2022/08/25 14:15:40;;;;;;;3.23;2.93;;;32.00;99.90;;;;;;4987852;28;20467;-75
2022/08/25 14:18:12;;;;;;;3.73;3.40;;;32.00;99.90;;;;;;4987849;28;20501;-73
2022/08/25 14:20:44;;;;;;;4.63;3.40;;;32.10;99.90;;;;;;4988475;28;20499;-76
2022/08/25 14:23:15;;;;;;;3.37;2.70;;;32.20;99.90;;;;;;4988674;28;20444;-75
2022/08/25 14:25:43;;;;;;;3.60;3.00;;;32.30;99.90;;;;;;4987257;28;20958;-75
2022/08/25 14:28:12;;;;;;;4.10;3.70;;;32.40;99.90;;;;;;4986149;28;20465;-75
2022/08/25 14:30:42;;;;;;;5.87;3.83;;;32.30;99.90;;;;;;4987213;28;20479;-76
2022/08/25 14:33:11;;;;;;;2.97;2.73;;;32.30;99.90;;;;;;4987311;28;20860;-76
2022/08/25 14:35:38;;;;;;;3.50;3.20;;;32.40;99.90;;;;;;4986332;28;21178;-75
2022/08/25 14:38:10;;;;;;;3.33;3.03;;;32.40;99.90;;;;;;4987587;28;20470;-75
2022/08/25 14:40:38;;;;;;;3.50;3.20;;;32.50;99.90;;;;;;4986859;28;20595;-75
2022/08/25 14:43:06;;;;;;;6.60;5.90;;;32.60;99.90;;;;;;4988107;28;20526;-75
2022/08/25 14:45:36;;;;;;;3.87;3.20;;;32.70;99.90;;;;;;4986316;28;20466;-75
2022/08/25 14:48:06;;;;;;;3.67;3.20;;;32.80;99.90;;;;;;4987122;28;20960;-76
2022/08/25 14:50:35;;;;;;;3.60;3.30;;;32.90;99.90;;;;;;4987227;28;20592;-76
2022/08/25 14:53:03;;;;;;;4.00;3.40;;;32.80;99.90;;;;;;4986588;28;20468;-76
2022/08/25 14:55:30;;;;;;;5.83;3.57;;;32.80;99.90;;;;;;4986270;28;20467;-76
2022/08/25 14:57:57;;;;;;;3.80;3.40;;;32.80;99.90;;;;;;4986843;28;20470;-76
2022/08/25 15:00:25;;;;;;;7.23;3.50;;;32.70;99.90;;;;;;4986006;28;20593;-77
2022/08/25 15:02:53;;;;;;;4.30;3.23;;;32.60;99.90;;;;;;4986433;28;20826;-75
2022/08/25 15:05:25;;;;;;;5.40;3.13;;;32.50;99.90;;;;;;4985299;28;20552;-75
2022/08/25 15:10:38;;;;;;;3.80;3.30;;;32.20;99.90;;;;;;4986644;28;20450;-75
2022/08/25 15:13:05;;;;;;;3.57;3.27;;;32.00;99.90;;;;;;4986632;28;21012;-75
2022/08/25 15:15:40;;;;;;;2.97;2.77;;;31.90;99.90;;;;;;4985997;28;20511;-74
2022/08/25 15:18:07;;;;;;;4.30;3.40;;;31.80;99.90;;;;;;4986925;28;20455;-74
2022/08/25 15:20:35;;;;;;;4.07;3.30;;;31.60;99.90;;;;;;4985851;28;20493;-74
2022/08/25 15:23:02;;;;;;;5.83;3.37;;;31.60;99.90;;;;;;4986689;28;20464;-74
2022/08/25 15:25:29;;;;;;;3.73;3.40;;;31.70;99.90;;;;;;4985216;28;20466;-74
2022/08/25 15:27:56;;;;;;;3.53;3.13;;;31.80;99.90;;;;;;4986914;28;20452;-74
2022/08/25 15:30:23;;;;;;;12.03;4.07;;;31.80;99.90;;;;;;4986648;28;20444;-74
2022/08/25 15:32:51;;;;;;;5.43;3.27;;;31.90;99.90;;;;;;4985794;28;20455;-74
2022/08/25 15:35:18;;;;;;;3.90;2.80;;;32.10;99.90;;;;;;4986343;28;20487;-73
2022/08/25 15:37:46;;;;;;;7.67;3.47;;;32.20;99.90;;;;;;4986818;28;20462;-73
2022/08/25 15:40:14;;;;;;;3.50;3.03;;;32.40;99.90;;;;;;4987121;28;20960;-73
2022/08/25 15:42:41;;;;;;;6.40;3.67;;;32.40;99.90;;;;;;4986325;28;20463;-73
2022/08/25 15:45:09;;;;;;;5.83;3.10;;;32.50;99.90;;;;;;4986344;28;20460;-74
2022/08/25 15:47:36;;;;;;;3.57;3.20;;;32.60;99.80;;;;;;4987277;28;20542;-73
2022/08/25 15:50:08;;;;;;;4.13;2.97;;;32.70;99.70;;;;;;4986950;28;20451;-73
2022/08/25 15:52:35;;;;;;;4.17;3.10;;;32.70;98.00;;;;;;4987547;28;20467;-73
2022/08/25 15:55:03;;;;;;;3.57;2.97;;;32.60;97.60;;;;;;4985895;28;20539;-73
2022/08/25 15:57:30;;;;;;;4.27;3.50;;;32.60;98.60;;;;;;4986535;28;20538;-74
2022/08/25 15:59:56;;;;;;;5.90;3.50;;;32.70;99.90;;;;;;4985873;28;20470;-74
2022/08/25 16:02:23;;;;;;;6.23;3.63;;;32.70;98.90;;;;;;4985603;28;20499;-74
2022/08/25 16:04:51;;;;;;;5.67;4.17;;;32.80;99.90;;;;;;4985349;28;20974;-73
2022/08/25 16:07:20;;;;;;;9.10;3.63;;;32.80;99.90;;;;;;4986066;28;20826;-74
2022/08/25 16:09:47;;;;;;;6.90;3.93;;;32.90;99.90;;;;;;4986192;28;20462;-74
2022/08/25 16:12:14;;;;;;;4.00;3.30;;;33.00;99.90;;;;;;4985832;28;20491;-74
2022/08/25 16:14:41;;;;;;;5.30;3.70;;;33.00;98.80;;;;;;4985219;28;20468;-74
2022/08/25 16:17:08;;;;;;;3.87;3.50;;;32.90;98.20;;;;;;4985488;28;20460;-74
2022/08/25 16:19:35;;;;;;;4.93;4.43;;;32.90;99.30;;;;;;4985666;28;20956;-74
2022/08/25 16:22:02;;;;;;;5.43;3.50;;;32.90;99.40;;;;;;4985599;28;20500;-75
2022/08/25 16:24:30;;;;;;;6.63;3.80;;;33.00;99.10;;;;;;4985105;28;20467;-74
2022/08/25 16:27:03;;;;;;;4.47;3.20;;;33.00;98.30;;;;;;4985541;28;20466;-75
2022/08/25 16:29:31;;;;;;;8.57;4.50;;;32.90;98.20;;;;;;4985666;28;20502;-74
2022/08/25 16:31:59;;;;;;;4.87;3.83;;;32.90;99.30;;;;;;4985540;28;20480;-74
2022/08/25 16:34:26;;;;;;;3.50;3.20;;;32.90;99.20;;;;;;4984718;28;20463;-74
2022/08/25 16:36:53;;;;;;;5.13;3.73;;;32.90;99.00;;;;;;4985388;28;20455;-74
2022/08/25 16:39:21;;;;;;;5.03;3.10;;;32.80;99.30;;;;;;4984120;28;20473;-74
2022/08/25 16:41:49;;;;;;;10.77;4.43;;;32.80;98.60;;;;;;4985364;28;20498;-74
2022/08/25 16:44:16;;;;;;;7.87;4.63;;;32.80;99.10;;;;;;4985577;28;20501;-78
2022/08/25 16:46:43;;;;;;;7.07;3.97;;;32.70;99.80;;;;;;4985843;28;20455;-75
2022/08/25 16:49:12;;;;;;;6.10;5.50;;;32.70;99.40;;;;;;4986222;28;20462;-79
2022/08/25 16:51:40;;;;;;;7.23;4.80;;;32.60;99.30;;;;;;4985940;28;20472;-76
2022/08/25 16:56:56;;;;;;;7.30;3.50;;;32.40;98.80;;;;;;4986216;28;21101;-75
2022/08/25 16:59:24;;;;;;;8.33;4.40;;;32.40;98.60;;;;;;4986210;28;20477;-76
2022/08/25 17:01:52;;;;;;;4.03;3.63;;;32.20;99.60;;;;;;4985881;28;20506;-77
2022/08/25 17:04:19;;;;;;;4.20;3.80;;;32.20;99.30;;;;;;4985071;28;20498;-76
2022/08/25 17:06:46;;;;;;;4.67;3.50;;;32.00;98.90;;;;;;4985919;28;20810;-75
2022/08/25 17:09:14;;;;;;;3.50;3.20;;;32.00;99.00;;;;;;4985933;28;20587;-76
2022/08/25 17:11:45;;;;;;;3.80;3.50;;;32.00;99.00;;;;;;4985829;28;20605;-75
2022/08/25 17:14:15;;;;;;;3.80;3.30;;;31.90;98.70;;;;;;4984769;28;20525;-75
2022/08/25 17:16:42;;;;;;;5.20;4.20;;;31.80;99.30;;;;;;4985394;28;20463;-76
2022/08/25 17:19:11;;;;;;;4.43;3.50;;;31.70;99.10;;;;;;4983714;28;20455;-74